sensor_id;sensor_type;location;lat;lon;timestamp;temperature;humidity
652;DHT22;310;48.490;9.200;2023-05-29T00:02:14;18.70;32.00
652;DHT22;310;48.490;9.200;2023-05-29T00:04:39;18.40;32.60
652;DHT22;310;48.490;9.200;2023-05-29T00:07:05;18.30;33.80
652;DHT22;310;48.490;9.200;2023-05-29T00:09:31;18.40;33.60
652;DHT22;310;48.490;9.200;2023-05-29T00:11:57;18.30;34.60
652;DHT22;310;48.490;9.200;2023-05-29T00:14:22;18.10;35.20
652;DHT22;310;48.490;9.200;2023-05-29T00:16:49;18.30;34.10
652;DHT22;310;48.490;9.200;2023-05-29T00:19:15;18.30;33.60
652;DHT22;310;48.490;9.200;2023-05-29T00:21:47;18.40;32.90
652;DHT22;310;48.490;9.200;2023-05-29T00:24:14;18.30;33.10
652;DHT22;310;48.490;9.200;2023-05-29T00:26:40;18.30;32.10
652;DHT22;310;48.490;9.200;2023-05-29T00:29:06;18.30;32.80
652;DHT22;310;48.490;9.200;2023-05-29T00:31:32;18.00;33.60
652;DHT22;310;48.490;9.200;2023-05-29T00:33:57;18.10;33.60
652;DHT22;310;48.490;9.200;2023-05-29T00:36:23;18.20;33.50
652;DHT22;310;48.490;9.200;2023-05-29T00:38:49;18.10;34.20
652;DHT22;310;48.490;9.200;2023-05-29T00:41:15;18.00;34.90
652;DHT22;310;48.490;9.200;2023-05-29T00:43:41;17.80;34.50
652;DHT22;310;48.490;9.200;2023-05-29T00:46:08;17.80;35.00
652;DHT22;310;48.490;9.200;2023-05-29T00:48:34;17.90;33.60
652;DHT22;310;48.490;9.200;2023-05-29T00:51:00;18.00;34.80
652;DHT22;310;48.490;9.200;2023-05-29T00:53:25;17.80;35.10
652;DHT22;310;48.490;9.200;2023-05-29T00:55:52;18.00;34.30
652;DHT22;310;48.490;9.200;2023-05-29T00:58:18;18.10;32.70
652;DHT22;310;48.490;9.200;2023-05-29T01:00:44;18.10;33.00
652;DHT22;310;48.490;9.200;2023-05-29T01:03:10;18.00;34.40
652;DHT22;310;48.490;9.200;2023-05-29T01:05:40;17.80;35.00
652;DHT22;310;48.490;9.200;2023-05-29T01:08:06;17.60;36.30
652;DHT22;310;48.490;9.200;2023-05-29T01:10:32;17.60;34.90
652;DHT22;310;48.490;9.200;2023-05-29T01:13:09;17.60;34.60
652;DHT22;310;48.490;9.200;2023-05-29T01:15:57;17.50;36.10
652;DHT22;310;48.490;9.200;2023-05-29T01:18:39;17.40;35.50
652;DHT22;310;48.490;9.200;2023-05-29T01:23:53;17.40;36.10
652;DHT22;310;48.490;9.200;2023-05-29T01:26:41;17.40;35.70
652;DHT22;310;48.490;9.200;2023-05-29T01:29:07;17.40;36.10
652;DHT22;310;48.490;9.200;2023-05-29T01:31:37;17.50;36.50
652;DHT22;310;48.490;9.200;2023-05-29T01:34:04;17.20;35.50
652;DHT22;310;48.490;9.200;2023-05-29T01:36:29;17.00;37.10
652;DHT22;310;48.490;9.200;2023-05-29T01:38:57;17.00;36.60
652;DHT22;310;48.490;9.200;2023-05-29T01:41:24;17.00;36.30
652;DHT22;310;48.490;9.200;2023-05-29T01:43:51;16.90;36.30
652;DHT22;310;48.490;9.200;2023-05-29T01:46:18;16.80;36.50
652;DHT22;310;48.490;9.200;2023-05-29T01:48:46;16.80;37.10
652;DHT22;310;48.490;9.200;2023-05-29T01:51:12;16.70;36.80
652;DHT22;310;48.490;9.200;2023-05-29T01:53:39;16.70;37.60
652;DHT22;310;48.490;9.200;2023-05-29T01:56:05;16.60;37.80
652;DHT22;310;48.490;9.200;2023-05-29T01:58:32;16.70;36.40
652;DHT22;310;48.490;9.200;2023-05-29T02:00:58;16.70;37.50
652;DHT22;310;48.490;9.200;2023-05-29T02:03:25;16.70;36.10
652;DHT22;310;48.490;9.200;2023-05-29T02:05:54;16.70;36.80
652;DHT22;310;48.490;9.200;2023-05-29T02:08:20;16.70;38.10
652;DHT22;310;48.490;9.200;2023-05-29T02:10:46;16.50;37.30
652;DHT22;310;48.490;9.200;2023-05-29T02:13:12;16.50;38.40
652;DHT22;310;48.490;9.200;2023-05-29T02:15:37;16.30;37.40
652;DHT22;310;48.490;9.200;2023-05-29T02:18:03;16.50;37.90
652;DHT22;310;48.490;9.200;2023-05-29T02:20:28;16.50;38.40
652;DHT22;310;48.490;9.200;2023-05-29T02:22:54;16.50;37.60
652;DHT22;310;48.490;9.200;2023-05-29T02:25:20;16.40;38.30
652;DHT22;310;48.490;9.200;2023-05-29T02:27:45;16.40;36.40
652;DHT22;310;48.490;9.200;2023-05-29T02:30:11;16.50;38.10
652;DHT22;310;48.490;9.200;2023-05-29T02:32:37;16.50;36.90
652;DHT22;310;48.490;9.200;2023-05-29T02:35:03;16.60;35.70
652;DHT22;310;48.490;9.200;2023-05-29T02:37:28;16.70;36.60
652;DHT22;310;48.490;9.200;2023-05-29T02:39:54;16.60;35.50
652;DHT22;310;48.490;9.200;2023-05-29T02:42:20;16.50;36.80
652;DHT22;310;48.490;9.200;2023-05-29T02:44:45;16.40;36.50
652;DHT22;310;48.490;9.200;2023-05-29T02:47:11;16.20;38.10
652;DHT22;310;48.490;9.200;2023-05-29T02:49:37;16.30;38.10
652;DHT22;310;48.490;9.200;2023-05-29T02:52:02;16.20;36.80
652;DHT22;310;48.490;9.200;2023-05-29T02:54:28;16.30;38.20
652;DHT22;310;48.490;9.200;2023-05-29T02:56:54;16.20;38.10
652;DHT22;310;48.490;9.200;2023-05-29T02:59:19;16.40;37.70
652;DHT22;310;48.490;9.200;2023-05-29T03:01:45;16.20;37.10
652;DHT22;310;48.490;9.200;2023-05-29T03:04:12;16.20;36.60
652;DHT22;310;48.490;9.200;2023-05-29T03:06:38;16.10;38.00
652;DHT22;310;48.490;9.200;2023-05-29T03:09:03;16.00;38.50
652;DHT22;310;48.490;9.200;2023-05-29T03:11:32;15.90;38.20
652;DHT22;310;48.490;9.200;2023-05-29T03:13:58;15.80;39.20
652;DHT22;310;48.490;9.200;2023-05-29T03:16:24;15.80;38.60
652;DHT22;310;48.490;9.200;2023-05-29T03:18:50;15.80;38.50
652;DHT22;310;48.490;9.200;2023-05-29T03:21:16;15.80;38.20
652;DHT22;310;48.490;9.200;2023-05-29T03:23:42;15.80;38.20
652;DHT22;310;48.490;9.200;2023-05-29T03:26:07;15.70;38.70
652;DHT22;310;48.490;9.200;2023-05-29T03:28:33;15.80;39.30
652;DHT22;310;48.490;9.200;2023-05-29T03:30:58;16.00;38.60
652;DHT22;310;48.490;9.200;2023-05-29T03:33:24;15.90;37.80
652;DHT22;310;48.490;9.200;2023-05-29T03:35:50;15.80;38.70
652;DHT22;310;48.490;9.200;2023-05-29T03:38:16;15.80;37.80
652;DHT22;310;48.490;9.200;2023-05-29T03:40:41;15.80;38.60
652;DHT22;310;48.490;9.200;2023-05-29T03:43:07;15.80;37.80
652;DHT22;310;48.490;9.200;2023-05-29T03:45:32;15.90;38.60
652;DHT22;310;48.490;9.200;2023-05-29T03:47:58;15.80;38.90
652;DHT22;310;48.490;9.200;2023-05-29T03:50:24;15.90;37.90
652;DHT22;310;48.490;9.200;2023-05-29T03:52:49;15.80;39.30
652;DHT22;310;48.490;9.200;2023-05-29T03:55:15;15.90;39.70
652;DHT22;310;48.490;9.200;2023-05-29T03:57:41;15.80;38.20
652;DHT22;310;48.490;9.200;2023-05-29T04:00:10;15.80;37.70
652;DHT22;310;48.490;9.200;2023-05-29T04:02:37;15.80;38.50
652;DHT22;310;48.490;9.200;2023-05-29T04:05:05;15.60;37.60
652;DHT22;310;48.490;9.200;2023-05-29T04:07:35;15.70;37.60
652;DHT22;310;48.490;9.200;2023-05-29T04:10:05;15.70;38.00
652;DHT22;310;48.490;9.200;2023-05-29T04:12:32;15.80;37.80
652;DHT22;310;48.490;9.200;2023-05-29T04:14:58;15.90;37.80
652;DHT22;310;48.490;9.200;2023-05-29T04:17:24;15.70;36.50
652;DHT22;310;48.490;9.200;2023-05-29T04:19:49;15.60;38.40
652;DHT22;310;48.490;9.200;2023-05-29T04:22:15;15.80;39.30
652;DHT22;310;48.490;9.200;2023-05-29T04:24:41;15.90;39.40
652;DHT22;310;48.490;9.200;2023-05-29T04:27:10;16.10;37.90
652;DHT22;310;48.490;9.200;2023-05-29T04:29:42;16.10;38.00
652;DHT22;310;48.490;9.200;2023-05-29T04:32:11;16.20;38.10
652;DHT22;310;48.490;9.200;2023-05-29T04:34:39;16.10;37.10
652;DHT22;310;48.490;9.200;2023-05-29T04:37:05;16.10;38.00
652;DHT22;310;48.490;9.200;2023-05-29T04:39:31;16.10;37.40
652;DHT22;310;48.490;9.200;2023-05-29T04:41:58;16.20;38.10
652;DHT22;310;48.490;9.200;2023-05-29T04:44:26;16.30;38.00
652;DHT22;310;48.490;9.200;2023-05-29T04:46:52;16.20;38.10
652;DHT22;310;48.490;9.200;2023-05-29T04:49:18;16.20;37.30
652;DHT22;310;48.490;9.200;2023-05-29T04:51:44;16.00;36.00
652;DHT22;310;48.490;9.200;2023-05-29T04:54:11;16.00;38.70
652;DHT22;310;48.490;9.200;2023-05-29T04:56:37;16.30;37.20
652;DHT22;310;48.490;9.200;2023-05-29T04:59:03;16.30;38.20
652;DHT22;310;48.490;9.200;2023-05-29T05:01:28;16.40;36.70
652;DHT22;310;48.490;9.200;2023-05-29T05:03:54;16.50;37.60
652;DHT22;310;48.490;9.200;2023-05-29T05:06:22;16.50;36.90
652;DHT22;310;48.490;9.200;2023-05-29T05:08:47;16.50;36.50
652;DHT22;310;48.490;9.200;2023-05-29T05:11:13;16.70;35.40
652;DHT22;310;48.490;9.200;2023-05-29T05:13:39;16.80;34.90
652;DHT22;310;48.490;9.200;2023-05-29T05:16:05;16.80;35.60
652;DHT22;310;48.490;9.200;2023-05-29T05:18:31;16.90;36.10
652;DHT22;310;48.490;9.200;2023-05-29T05:20:56;17.00;36.10
652;DHT22;310;48.490;9.200;2023-05-29T05:23:22;17.10;35.80
652;DHT22;310;48.490;9.200;2023-05-29T05:25:47;17.10;35.00
652;DHT22;310;48.490;9.200;2023-05-29T05:28:13;17.10;35.60
652;DHT22;310;48.490;9.200;2023-05-29T05:30:38;17.40;35.70
652;DHT22;310;48.490;9.200;2023-05-29T05:33:04;17.40;35.60
652;DHT22;310;48.490;9.200;2023-05-29T05:35:30;17.60;35.90
652;DHT22;310;48.490;9.200;2023-05-29T05:37:55;17.80;34.00
652;DHT22;310;48.490;9.200;2023-05-29T05:40:23;17.80;34.80
652;DHT22;310;48.490;9.200;2023-05-29T05:42:49;17.90;34.60
652;DHT22;310;48.490;9.200;2023-05-29T05:45:15;17.50;32.20
652;DHT22;310;48.490;9.200;2023-05-29T05:47:40;17.40;32.70
652;DHT22;310;48.490;9.200;2023-05-29T05:50:06;17.60;32.40
652;DHT22;310;48.490;9.200;2023-05-29T05:52:32;17.90;32.20
652;DHT22;310;48.490;9.200;2023-05-29T05:54:58;17.90;34.30
652;DHT22;310;48.490;9.200;2023-05-29T05:57:24;17.70;32.40
652;DHT22;310;48.490;9.200;2023-05-29T05:59:51;18.10;32.70
652;DHT22;310;48.490;9.200;2023-05-29T06:02:16;18.00;33.10
652;DHT22;310;48.490;9.200;2023-05-29T06:04:42;17.80;33.20
652;DHT22;310;48.490;9.200;2023-05-29T06:07:08;18.30;33.60
652;DHT22;310;48.490;9.200;2023-05-29T06:09:34;18.60;34.20
652;DHT22;310;48.490;9.200;2023-05-29T06:12:00;18.50;30.90
652;DHT22;310;48.490;9.200;2023-05-29T06:14:25;18.10;31.00
652;DHT22;310;48.490;9.200;2023-05-29T06:16:51;17.70;32.00
652;DHT22;310;48.490;9.200;2023-05-29T06:19:17;17.60;32.50
652;DHT22;310;48.490;9.200;2023-05-29T06:21:42;17.70;31.60
652;DHT22;310;48.490;9.200;2023-05-29T06:24:08;17.40;32.40
652;DHT22;310;48.490;9.200;2023-05-29T06:26:34;17.70;32.30
652;DHT22;310;48.490;9.200;2023-05-29T06:28:59;18.50;31.90
652;DHT22;310;48.490;9.200;2023-05-29T06:31:25;18.40;31.80
652;DHT22;310;48.490;9.200;2023-05-29T06:33:51;18.40;30.00
652;DHT22;310;48.490;9.200;2023-05-29T06:36:16;18.20;31.00
652;DHT22;310;48.490;9.200;2023-05-29T06:38:49;18.40;30.40
652;DHT22;310;48.490;9.200;2023-05-29T06:41:14;18.30;31.10
652;DHT22;310;48.490;9.200;2023-05-29T06:43:40;18.10;32.40
652;DHT22;310;48.490;9.200;2023-05-29T06:46:05;18.60;31.90
652;DHT22;310;48.490;9.200;2023-05-29T06:48:35;19.10;30.30
652;DHT22;310;48.490;9.200;2023-05-29T06:51:01;19.00;29.10
652;DHT22;310;48.490;9.200;2023-05-29T06:53:27;18.80;29.80
652;DHT22;310;48.490;9.200;2023-05-29T06:55:53;18.80;29.00
652;DHT22;310;48.490;9.200;2023-05-29T06:58:19;19.20;28.80
652;DHT22;310;48.490;9.200;2023-05-29T07:00:44;19.20;29.40
652;DHT22;310;48.490;9.200;2023-05-29T07:03:10;19.30;28.50
652;DHT22;310;48.490;9.200;2023-05-29T07:05:36;19.50;28.40
652;DHT22;310;48.490;9.200;2023-05-29T07:08:01;18.70;28.40
652;DHT22;310;48.490;9.200;2023-05-29T07:10:27;19.70;29.20
652;DHT22;310;48.490;9.200;2023-05-29T07:12:52;20.20;28.00
652;DHT22;310;48.490;9.200;2023-05-29T07:15:18;20.00;27.80
652;DHT22;310;48.490;9.200;2023-05-29T07:17:44;19.60;28.50
652;DHT22;310;48.490;9.200;2023-05-29T07:20:10;19.80;29.30
652;DHT22;310;48.490;9.200;2023-05-29T07:22:35;20.40;28.30
652;DHT22;310;48.490;9.200;2023-05-29T07:25:02;19.90;28.00
652;DHT22;310;48.490;9.200;2023-05-29T07:27:28;20.00;28.10
652;DHT22;310;48.490;9.200;2023-05-29T07:29:54;20.10;27.70
652;DHT22;310;48.490;9.200;2023-05-29T07:32:20;20.60;28.30
652;DHT22;310;48.490;9.200;2023-05-29T07:34:47;20.90;26.60
652;DHT22;310;48.490;9.200;2023-05-29T07:37:15;21.00;26.80
652;DHT22;310;48.490;9.200;2023-05-29T07:39:40;21.40;27.00
652;DHT22;310;48.490;9.200;2023-05-29T07:42:07;21.50;27.00
652;DHT22;310;48.490;9.200;2023-05-29T07:44:33;21.00;26.70
652;DHT22;310;48.490;9.200;2023-05-29T07:46:58;21.00;28.10
652;DHT22;310;48.490;9.200;2023-05-29T07:49:24;21.40;27.60
652;DHT22;310;48.490;9.200;2023-05-29T07:51:50;21.90;27.10
652;DHT22;310;48.490;9.200;2023-05-29T07:54:16;21.30;26.60
652;DHT22;310;48.490;9.200;2023-05-29T07:56:43;21.40;27.00
652;DHT22;310;48.490;9.200;2023-05-29T07:59:10;21.70;27.20
652;DHT22;310;48.490;9.200;2023-05-29T08:01:36;22.20;26.60
652;DHT22;310;48.490;9.200;2023-05-29T08:04:02;22.10;26.10
652;DHT22;310;48.490;9.200;2023-05-29T08:06:28;22.10;26.40
652;DHT22;310;48.490;9.200;2023-05-29T08:08:53;22.20;26.10
652;DHT22;310;48.490;9.200;2023-05-29T08:11:19;22.40;26.40
652;DHT22;310;48.490;9.200;2023-05-29T08:13:46;22.60;27.00
652;DHT22;310;48.490;9.200;2023-05-29T08:16:12;22.50;27.80
652;DHT22;310;48.490;9.200;2023-05-29T08:18:39;22.70;26.10
652;DHT22;310;48.490;9.200;2023-05-29T08:21:05;22.90;25.90
652;DHT22;310;48.490;9.200;2023-05-29T08:23:32;22.50;24.50
652;DHT22;310;48.490;9.200;2023-05-29T08:25:57;22.20;25.80
652;DHT22;310;48.490;9.200;2023-05-29T08:28:23;22.70;25.90
652;DHT22;310;48.490;9.200;2023-05-29T08:30:49;23.00;26.30
652;DHT22;310;48.490;9.200;2023-05-29T08:33:14;23.00;25.00
652;DHT22;310;48.490;9.200;2023-05-29T08:35:40;23.20;24.80
652;DHT22;310;48.490;9.200;2023-05-29T08:38:06;23.40;23.90
652;DHT22;310;48.490;9.200;2023-05-29T08:40:32;23.50;25.30
652;DHT22;310;48.490;9.200;2023-05-29T08:43:02;23.40;24.60
652;DHT22;310;48.490;9.200;2023-05-29T08:45:29;23.40;24.50
652;DHT22;310;48.490;9.200;2023-05-29T08:47:58;23.50;25.60
652;DHT22;310;48.490;9.200;2023-05-29T08:50:26;23.80;24.40
652;DHT22;310;48.490;9.200;2023-05-29T08:52:51;24.30;24.20
652;DHT22;310;48.490;9.200;2023-05-29T08:55:17;23.90;23.60
652;DHT22;310;48.490;9.200;2023-05-29T08:57:43;25.50;26.30
652;DHT22;310;48.490;9.200;2023-05-29T09:00:11;23.90;25.40
652;DHT22;310;48.490;9.200;2023-05-29T09:02:45;24.10;24.50
652;DHT22;310;48.490;9.200;2023-05-29T09:05:11;23.60;24.50
652;DHT22;310;48.490;9.200;2023-05-29T09:07:38;22.80;26.00
652;DHT22;310;48.490;9.200;2023-05-29T09:10:08;22.60;27.20
652;DHT22;310;48.490;9.200;2023-05-29T09:12:34;23.30;26.90
652;DHT22;310;48.490;9.200;2023-05-29T09:15:01;23.90;26.20
652;DHT22;310;48.490;9.200;2023-05-29T09:17:31;24.30;24.90
652;DHT22;310;48.490;9.200;2023-05-29T09:20:00;24.50;24.50
652;DHT22;310;48.490;9.200;2023-05-29T09:22:26;24.90;24.50
652;DHT22;310;48.490;9.200;2023-05-29T09:24:51;25.30;24.30
652;DHT22;310;48.490;9.200;2023-05-29T09:27:18;25.10;23.80
652;DHT22;310;48.490;9.200;2023-05-29T09:29:45;25.60;23.60
652;DHT22;310;48.490;9.200;2023-05-29T09:32:14;25.70;22.40
652;DHT22;310;48.490;9.200;2023-05-29T09:34:41;25.80;23.20
652;DHT22;310;48.490;9.200;2023-05-29T09:37:08;25.90;22.40
652;DHT22;310;48.490;9.200;2023-05-29T09:39:47;26.30;22.10
652;DHT22;310;48.490;9.200;2023-05-29T09:42:14;26.40;22.40
652;DHT22;310;48.490;9.200;2023-05-29T09:44:41;25.90;22.00
652;DHT22;310;48.490;9.200;2023-05-29T09:47:07;25.80;21.00
652;DHT22;310;48.490;9.200;2023-05-29T09:49:34;26.10;21.70
652;DHT22;310;48.490;9.200;2023-05-29T09:52:00;26.30;20.80
652;DHT22;310;48.490;9.200;2023-05-29T09:54:29;26.40;19.80
652;DHT22;310;48.490;9.200;2023-05-29T09:56:57;25.90;20.90
652;DHT22;310;48.490;9.200;2023-05-29T09:59:24;25.30;21.30
652;DHT22;310;48.490;9.200;2023-05-29T10:02:03;25.90;20.30
652;DHT22;310;48.490;9.200;2023-05-29T10:04:31;26.40;21.20
652;DHT22;310;48.490;9.200;2023-05-29T10:07:05;26.60;20.00
652;DHT22;310;48.490;9.200;2023-05-29T10:09:33;26.80;18.90
652;DHT22;310;48.490;9.200;2023-05-29T10:12:00;25.60;18.70
652;DHT22;310;48.490;9.200;2023-05-29T10:14:31;25.80;21.00
652;DHT22;310;48.490;9.200;2023-05-29T10:16:59;25.90;18.80
652;DHT22;310;48.490;9.200;2023-05-29T10:19:29;26.10;19.70
652;DHT22;310;48.490;9.200;2023-05-29T10:21:55;26.80;19.20
652;DHT22;310;48.490;9.200;2023-05-29T10:24:22;27.10;17.90
652;DHT22;310;48.490;9.200;2023-05-29T10:26:49;27.40;18.00
652;DHT22;310;48.490;9.200;2023-05-29T10:29:42;27.00;17.80
652;DHT22;310;48.490;9.200;2023-05-29T10:32:32;27.20;17.00
652;DHT22;310;48.490;9.200;2023-05-29T10:35:16;26.40;19.50
652;DHT22;310;48.490;9.200;2023-05-29T10:37:52;25.80;19.50
652;DHT22;310;48.490;9.200;2023-05-29T10:40:24;26.50;17.90
652;DHT22;310;48.490;9.200;2023-05-29T10:42:51;27.20;19.50
652;DHT22;310;48.490;9.200;2023-05-29T10:47:56;27.30;17.10
652;DHT22;310;48.490;9.200;2023-05-29T10:50:41;27.50;18.80
652;DHT22;310;48.490;9.200;2023-05-29T10:53:07;28.00;17.80
652;DHT22;310;48.490;9.200;2023-05-29T10:55:38;27.40;18.10
652;DHT22;310;48.490;9.200;2023-05-29T11:00:46;28.00;17.50
652;DHT22;310;48.490;9.200;2023-05-29T11:03:17;28.20;16.50
652;DHT22;310;48.490;9.200;2023-05-29T11:05:59;28.60;16.60
652;DHT22;310;48.490;9.200;2023-05-29T11:08:44;29.00;15.50
652;DHT22;310;48.490;9.200;2023-05-29T11:11:15;28.90;15.40
652;DHT22;310;48.490;9.200;2023-05-29T11:13:40;28.80;14.20
652;DHT22;310;48.490;9.200;2023-05-29T11:16:19;28.90;16.10
652;DHT22;310;48.490;9.200;2023-05-29T11:18:46;29.10;13.90
652;DHT22;310;48.490;9.200;2023-05-29T11:23:53;29.50;15.70
652;DHT22;310;48.490;9.200;2023-05-29T11:26:21;29.80;14.40
652;DHT22;310;48.490;9.200;2023-05-29T11:28:48;30.60;13.50
652;DHT22;310;48.490;9.200;2023-05-29T11:31:15;30.90;13.70
652;DHT22;310;48.490;9.200;2023-05-29T11:33:47;31.70;12.40
652;DHT22;310;48.490;9.200;2023-05-29T11:36:14;32.90;9.90
652;DHT22;310;48.490;9.200;2023-05-29T11:38:40;33.10;10.00
652;DHT22;310;48.490;9.200;2023-05-29T11:41:06;33.20;10.90
652;DHT22;310;48.490;9.200;2023-05-29T11:43:31;33.70;9.00
652;DHT22;310;48.490;9.200;2023-05-29T11:45:58;34.00;9.00
652;DHT22;310;48.490;9.200;2023-05-29T11:48:24;34.80;7.70
652;DHT22;310;48.490;9.200;2023-05-29T11:50:49;35.00;7.30
652;DHT22;310;48.490;9.200;2023-05-29T11:53:15;35.10;6.90
652;DHT22;310;48.490;9.200;2023-05-29T11:55:41;35.20;7.20
652;DHT22;310;48.490;9.200;2023-05-29T11:58:06;35.20;6.90
652;DHT22;310;48.490;9.200;2023-05-29T12:00:36;35.60;6.30
652;DHT22;310;48.490;9.200;2023-05-29T12:03:04;36.00;6.60
652;DHT22;310;48.490;9.200;2023-05-29T12:05:31;35.80;6.70
652;DHT22;310;48.490;9.200;2023-05-29T12:07:58;35.00;6.40
652;DHT22;310;48.490;9.200;2023-05-29T12:10:27;35.40;7.10
652;DHT22;310;48.490;9.200;2023-05-29T12:12:55;36.00;6.90
652;DHT22;310;48.490;9.200;2023-05-29T12:15:22;36.60;5.40
652;DHT22;310;48.490;9.200;2023-05-29T12:17:49;37.00;3.10
652;DHT22;310;48.490;9.200;2023-05-29T12:20:16;36.90;4.20
652;DHT22;310;48.490;9.200;2023-05-29T12:22:44;36.60;2.50
652;DHT22;310;48.490;9.200;2023-05-29T12:25:17;36.70;2.90
652;DHT22;310;48.490;9.200;2023-05-29T12:27:45;36.80;1.60
652;DHT22;310;48.490;9.200;2023-05-29T12:30:16;36.30;3.40
652;DHT22;310;48.490;9.200;2023-05-29T12:32:46;36.30;2.40
652;DHT22;310;48.490;9.200;2023-05-29T12:35:19;36.60;2.20
652;DHT22;310;48.490;9.200;2023-05-29T12:37:49;36.80;2.00
652;DHT22;310;48.490;9.200;2023-05-29T12:40:19;35.80;2.70
652;DHT22;310;48.490;9.200;2023-05-29T12:42:53;36.00;1.70
652;DHT22;310;48.490;9.200;2023-05-29T12:45:19;35.80;3.20
652;DHT22;310;48.490;9.200;2023-05-29T12:47:49;35.60;3.20
652;DHT22;310;48.490;9.200;2023-05-29T12:50:23;35.30;3.00
652;DHT22;310;48.490;9.200;2023-05-29T12:55:21;34.90;3.50
652;DHT22;310;48.490;9.200;2023-05-29T12:57:47;34.40;4.70
652;DHT22;310;48.490;9.200;2023-05-29T13:00:13;33.90;2.90
652;DHT22;310;48.490;9.200;2023-05-29T13:02:39;33.10;4.70
652;DHT22;310;48.490;9.200;2023-05-29T13:05:05;32.70;5.20
652;DHT22;310;48.490;9.200;2023-05-29T13:07:31;32.00;4.30
652;DHT22;310;48.490;9.200;2023-05-29T13:09:57;32.00;4.50
652;DHT22;310;48.490;9.200;2023-05-29T13:12:23;32.00;5.90
652;DHT22;310;48.490;9.200;2023-05-29T13:14:48;31.70;4.50
652;DHT22;310;48.490;9.200;2023-05-29T13:17:14;31.50;5.50
652;DHT22;310;48.490;9.200;2023-05-29T13:19:40;31.90;7.60
652;DHT22;310;48.490;9.200;2023-05-29T13:22:05;31.70;5.70
652;DHT22;310;48.490;9.200;2023-05-29T13:24:31;31.50;6.30
652;DHT22;310;48.490;9.200;2023-05-29T13:26:56;31.60;6.40
652;DHT22;310;48.490;9.200;2023-05-29T13:29:22;31.40;6.20
652;DHT22;310;48.490;9.200;2023-05-29T13:31:47;31.30;7.70
652;DHT22;310;48.490;9.200;2023-05-29T13:34:13;30.80;7.80
652;DHT22;310;48.490;9.200;2023-05-29T13:36:39;31.00;7.10
652;DHT22;310;48.490;9.200;2023-05-29T13:39:04;31.00;8.10
652;DHT22;310;48.490;9.200;2023-05-29T13:41:31;31.10;7.80
652;DHT22;310;48.490;9.200;2023-05-29T13:43:57;31.30;7.50
652;DHT22;310;48.490;9.200;2023-05-29T13:46:23;31.40;7.00
652;DHT22;310;48.490;9.200;2023-05-29T13:48:48;31.50;6.00
652;DHT22;310;48.490;9.200;2023-05-29T13:51:14;31.70;6.80
652;DHT22;310;48.490;9.200;2023-05-29T13:53:40;31.70;6.60
652;DHT22;310;48.490;9.200;2023-05-29T13:56:05;31.40;6.00
652;DHT22;310;48.490;9.200;2023-05-29T13:58:31;31.30;5.30
652;DHT22;310;48.490;9.200;2023-05-29T14:00:57;31.50;8.00
652;DHT22;310;48.490;9.200;2023-05-29T14:03:22;31.30;5.80
652;DHT22;310;48.490;9.200;2023-05-29T14:05:50;31.70;7.50
652;DHT22;310;48.490;9.200;2023-05-29T14:08:16;32.10;7.60
652;DHT22;310;48.490;9.200;2023-05-29T14:10:41;32.00;6.30
652;DHT22;310;48.490;9.200;2023-05-29T14:13:07;32.60;6.60
652;DHT22;310;48.490;9.200;2023-05-29T14:15:32;33.50;5.60
652;DHT22;310;48.490;9.200;2023-05-29T14:17:58;33.80;4.10
652;DHT22;310;48.490;9.200;2023-05-29T14:20:24;33.90;4.60
652;DHT22;310;48.490;9.200;2023-05-29T14:22:49;34.20;3.60
652;DHT22;310;48.490;9.200;2023-05-29T14:25:15;33.90;5.40
652;DHT22;310;48.490;9.200;2023-05-29T14:27:41;33.80;4.10
652;DHT22;310;48.490;9.200;2023-05-29T14:30:07;33.30;5.40
652;DHT22;310;48.490;9.200;2023-05-29T14:32:32;32.90;8.80
652;DHT22;310;48.490;9.200;2023-05-29T14:34:58;31.80;6.60
652;DHT22;310;48.490;9.200;2023-05-29T14:37:24;32.00;6.60
652;DHT22;310;48.490;9.200;2023-05-29T14:39:49;32.00;8.10
652;DHT22;310;48.490;9.200;2023-05-29T14:42:15;31.80;7.00
652;DHT22;310;48.490;9.200;2023-05-29T14:44:41;32.20;6.50
652;DHT22;310;48.490;9.200;2023-05-29T14:47:07;32.60;6.10
652;DHT22;310;48.490;9.200;2023-05-29T14:49:32;32.60;6.60
652;DHT22;310;48.490;9.200;2023-05-29T14:51:59;32.40;7.30
652;DHT22;310;48.490;9.200;2023-05-29T14:54:25;32.00;6.60
652;DHT22;310;48.490;9.200;2023-05-29T14:56:51;32.10;7.90
652;DHT22;310;48.490;9.200;2023-05-29T14:59:16;31.80;6.80
652;DHT22;310;48.490;9.200;2023-05-29T15:01:42;31.80;5.70
652;DHT22;310;48.490;9.200;2023-05-29T15:04:08;31.70;6.20
652;DHT22;310;48.490;9.200;2023-05-29T15:06:33;31.90;6.70
652;DHT22;310;48.490;9.200;2023-05-29T15:08:59;31.70;6.10
652;DHT22;310;48.490;9.200;2023-05-29T15:11:28;31.80;7.80
652;DHT22;310;48.490;9.200;2023-05-29T15:13:54;32.00;5.20
652;DHT22;310;48.490;9.200;2023-05-29T15:16:20;31.50;8.00
652;DHT22;310;48.490;9.200;2023-05-29T15:18:45;31.10;8.40
652;DHT22;310;48.490;9.200;2023-05-29T15:21:11;31.10;7.60
652;DHT22;310;48.490;9.200;2023-05-29T15:23:36;31.40;7.10
652;DHT22;310;48.490;9.200;2023-05-29T15:26:04;31.40;8.10
652;DHT22;310;48.490;9.200;2023-05-29T15:28:30;31.20;6.80
652;DHT22;310;48.490;9.200;2023-05-29T15:30:56;31.30;6.80
652;DHT22;310;48.490;9.200;2023-05-29T15:33:22;31.10;6.30
652;DHT22;310;48.490;9.200;2023-05-29T15:35:47;31.10;6.70
652;DHT22;310;48.490;9.200;2023-05-29T15:38:15;31.40;6.10
652;DHT22;310;48.490;9.200;2023-05-29T15:40:41;31.20;7.40
652;DHT22;310;48.490;9.200;2023-05-29T15:43:08;31.40;7.80
652;DHT22;310;48.490;9.200;2023-05-29T15:45:33;31.50;6.30
652;DHT22;310;48.490;9.200;2023-05-29T15:47:59;30.90;6.20
652;DHT22;310;48.490;9.200;2023-05-29T15:50:25;31.00;7.30
652;DHT22;310;48.490;9.200;2023-05-29T15:52:50;31.30;6.10
652;DHT22;310;48.490;9.200;2023-05-29T15:55:16;31.20;6.50
652;DHT22;310;48.490;9.200;2023-05-29T15:57:43;31.40;6.60
652;DHT22;310;48.490;9.200;2023-05-29T16:00:09;31.50;5.60
652;DHT22;310;48.490;9.200;2023-05-29T16:02:38;31.20;6.40
652;DHT22;310;48.490;9.200;2023-05-29T16:05:05;31.20;7.30
652;DHT22;310;48.490;9.200;2023-05-29T16:07:31;31.00;5.90
652;DHT22;310;48.490;9.200;2023-05-29T16:09:56;31.00;6.50
652;DHT22;310;48.490;9.200;2023-05-29T16:12:22;31.00;5.90
652;DHT22;310;48.490;9.200;2023-05-29T16:14:48;30.90;7.20
652;DHT22;310;48.490;9.200;2023-05-29T16:17:14;30.60;5.00
652;DHT22;310;48.490;9.200;2023-05-29T16:19:40;30.70;6.90
652;DHT22;310;48.490;9.200;2023-05-29T16:22:06;31.00;7.10
652;DHT22;310;48.490;9.200;2023-05-29T16:24:35;31.30;7.30
652;DHT22;310;48.490;9.200;2023-05-29T16:27:02;31.30;5.50
652;DHT22;310;48.490;9.200;2023-05-29T16:29:32;31.10;4.70
652;DHT22;310;48.490;9.200;2023-05-29T16:31:58;31.10;4.70
652;DHT22;310;48.490;9.200;2023-05-29T16:34:23;31.10;6.00
652;DHT22;310;48.490;9.200;2023-05-29T16:36:49;31.20;5.60
652;DHT22;310;48.490;9.200;2023-05-29T16:39:15;30.70;6.60
652;DHT22;310;48.490;9.200;2023-05-29T16:41:47;30.50;5.00
652;DHT22;310;48.490;9.200;2023-05-29T16:44:13;30.00;5.80
652;DHT22;310;48.490;9.200;2023-05-29T16:46:38;30.00;5.30
652;DHT22;310;48.490;9.200;2023-05-29T16:49:04;29.90;5.50
652;DHT22;310;48.490;9.200;2023-05-29T16:51:30;29.90;6.40